• Join FlightAware (Why Join?)
  • Login
  • US Flag 
04:59AM EDT


 

Airport Tracker/Info


-or-


 

Live Flight TrackerFlight Track Log ✈ UPS2872 ✈ 05-Nov-2013 ✈ KSDF - KABQ

Flight Track Log - Related Links

Times and Time Zones

All times are in EST time to prevent confusion due to time zone crossing. See the UPS2872 flight status page for this flight to view local times or setup timezone preferences in your user account.

Time Position Orientation Groundspeed Altitude Reporting Facility
EST Latitude Longitude Course Direction KTS MPH feet Rate Location/Type
04:02PM 38.1770 -85.7450 270° West 120 138  Level FlightAware
04:03PM 38.1540 -85.7380 167° South 161 185 1,300 2,160 Climbing FlightAware
04:03PM 38.1340 -85.7320 167° South 184 212 2,100 2,040 Climbing FlightAware
04:04PM 38.1020 -85.7320 180° South 218 251 3,300 2,340 Climbing FlightAware
04:05PM 38.0760 -85.7580 218° Southwest 255 293 4,600 3,240 Climbing FlightAware
04:05PM 38.0760 -85.8030 270° West 248 285 6,800 3,300 Climbing FlightAware
04:06PM 38.0770 -85.8460 272° West 258 297 7,900 2,880 Climbing FlightAware
04:06PM 38.0750 -85.8970 267° West 257 296 9,800 2,400 Climbing FlightAware
04:07PM 38.0720 -85.9460 266° West 287 330 10,600 1,560 Climbing FlightAware
04:07PM 38.0710 -85.9710 267° West 305 351 11,000 2,580 Climbing FlightAware
04:08PM 38.0850 -86.0540 282° West 332 382 13,200 3,300 Climbing FlightAware
04:08PM 38.0960 -86.1170 283° West 339 390 15,300 3,480 Climbing FlightAware
04:09PM 38.1070 -86.2230 278° West 347 399 18,200 3,240 Climbing FlightAware
04:10PM 38.1000 -86.3120 264° West 353 406 20,500 2,880 Climbing FlightAware
04:10PM 38.0920 -86.3860 262° West 362 417 22,000 2,520 Climbing FlightAware
04:11PM 38.0780 -86.5090 262° West 374 430 24,500 2,580 Climbing FlightAware
04:12PM 38.0690 -86.5830 261° West 377 434 26,000 2,580 Climbing FlightAware
04:13PM 38.0600 -86.6720 263° West 381 438 27,700 2,340 Climbing FlightAware
04:13PM 38.0530 -86.7460 263° West 382 440 28,900 2,400 Climbing FlightAware
04:14PM 38.0410 -86.8800 264° West 371 427 31,500 2,280 Climbing FlightAware
04:15PM 38.0290 -87.0020 263° West 366 421 33,500 2,100 Climbing FlightAware
04:16PM 38.0230 -87.0630 263° West 362 417 34,500 1,500 Climbing FlightAware
04:17PM 38.0090 -87.2120 263° West 351 404 36,000 840 Climbing FlightAware
04:17PM 38.0020 -87.2810 263° West 347 399 36,000  Level FlightAware
04:18PM 37.9900 -87.4030 263° West 350 403 36,000  Level FlightAware
04:19PM 37.9830 -87.4690 262° West 352 405 36,000  Level FlightAware
04:19PM 37.9760 -87.5380 263° West 354 407 36,000  Level FlightAware
04:21PM 37.9610 -87.6900 263° West 357 411 36,000  Level FlightAware
04:21PM 37.9530 -87.7660 262° West 359 413 36,000  Level FlightAware
04:22PM 37.9470 -87.8240 263° West 359 413 36,000  Level FlightAware
04:23PM 37.9340 -87.9460 262° West 361 415 36,000  Level FlightAware
04:23PM 37.9280 -88.0030 262° West 360 414 36,000  Level FlightAware
04:24PM 37.9140 -88.1330 262° West 359 413 36,000  Level FlightAware
04:25PM 37.9060 -88.2070 262° West 358 412 36,000  Level FlightAware
04:25PM 37.8970 -88.2900 262° West 357 411 36,000  Level FlightAware
04:26PM 37.8850 -88.4090 263° West 355 409 36,000  Level FlightAware
04:27PM 37.8700 -88.5380 262° West 354 407 36,000  Level FlightAware
04:28PM 37.8660 -88.5780 263° West 353 406 36,000  Level FlightAware
04:29PM 37.8540 -88.6880 262° West 353 406 36,000  Level FlightAware
04:30PM 37.8410 -88.8020 262° West 353 406 36,000  Level FlightAware
04:30PM 37.8340 -88.8660 262° West 353 406 36,000  Level FlightAware
04:31PM 37.8200 -88.9860 262° West 353 406 36,000  Level FlightAware
04:32PM 37.8080 -89.0970 262° West 352 405 36,000  Level FlightAware
04:32PM 37.8020 -89.1440 261° West 351 404 36,000  Level FlightAware
04:33PM 37.7880 -89.2670 262° West 349 402 36,000  Level FlightAware
04:34PM 37.7800 -89.3350 262° West 349 402 36,000  Level FlightAware
04:35PM 37.7680 -89.4380 262° West 351 404 36,000  Level FlightAware
04:36PM 37.7570 -89.5310 262° West 351 404 36,000  Level FlightAware
04:36PM 37.7500 -89.5910 262° West 351 404 36,000  Level FlightAware
04:37PM 37.7340 -89.7200 261° West 352 405 36,000  Level FlightAware
04:38PM 37.7270 -89.7770 261° West 352 405 36,000  Level FlightAware
04:39PM 37.7130 -89.8980 262° West 351 404 36,000  Level FlightAware
04:39PM 37.7000 -90.0000 261° West 350 403 36,000  Level FlightAware
04:40PM 37.6860 -90.1130 261° West 350 403 36,000  Level FlightAware
04:41PM 37.6820 -90.1510 262° West 350 403 36,000  Level FlightAware
04:42PM 37.6670 -90.2690 261° West 349 402 36,000  Level FlightAware
04:43PM 37.6530 -90.3790 261° West 350 403 36,000  Level FlightAware
04:43PM 37.6450 -90.4400 261° West 349 402 36,000  Level FlightAware
04:44PM 37.6310 -90.5480 261° West 347 399 36,000  Level FlightAware
04:45PM 37.6210 -90.6300 261° West 347 399 36,000  Level FlightAware
04:46PM 37.6060 -90.7480 261° West 347 399 36,000  Level FlightAware
04:47PM 37.5900 -90.8650 260° West 348 400 36,000  Level FlightAware
04:48PM 37.5770 -90.9670 261° West 348 400 36,000  Level FlightAware
04:48PM 37.5620 -91.0840 261° West 348 400 36,000  Level FlightAware
04:49PM 37.5530 -91.1490 260° West 348 400 36,000  Level FlightAware
04:50PM 37.5370 -91.2720 261° West 348 400 36,000  Level FlightAware
04:51PM 37.5210 -91.3910 260° West 347 399 36,000  Level FlightAware
04:52PM 37.5110 -91.4650 260° West 348 400 36,000  Level FlightAware
04:52PM 37.4980 -91.5600 260° West 346 398 36,000  Level FlightAware
04:53PM 37.4830 -91.6650 260° West 347 399 36,000  Level FlightAware
04:54PM 37.4750 -91.7220 260° West 346 398 36,000  Level FlightAware
04:55PM 37.4570 -91.8550 260° West 347 399 36,000  Level FlightAware
04:56PM 37.4440 -91.9470 260° West 347 399 36,000  Level FlightAware
04:57PM 37.4260 -92.0770 260° West 348 400 36,000  Level FlightAware
04:58PM 37.4110 -92.1810 260° West 349 402 36,000  Level FlightAware
04:58PM 37.3990 -92.2610 259° West 349 402 36,000  Level FlightAware
04:59PM 37.3790 -92.3660 257° West 343 395 36,000  Level FlightAware
05:00PM 37.3550 -92.4090 235° Southwest 343 395 36,000  Level FlightAware
05:01PM 37.2970 -92.5090 234° Southwest 344 396 36,000  Level FlightAware
05:02PM 37.2450 -92.5980 234° Southwest 343 395 36,000  Level FlightAware
05:02PM 37.2210 -92.6460 238° Southwest 345 397 36,000  Level FlightAware
05:03PM 37.1940 -92.7440 251° West 351 404 36,000  Level FlightAware
05:04PM 37.1790 -92.8490 260° West 351 404 36,000  Level FlightAware
05:04PM 37.1720 -92.9050 261° West 352 405 36,000  Level FlightAware
05:05PM 37.1570 -93.0250 261° West 352 405 36,000  Level FlightAware
05:06PM 37.1440 -93.1220 260° West 352 405 36,000  Level FlightAware
05:07PM 37.1330 -93.2080 261° West 352 405 36,000  Level FlightAware
05:08PM 37.1210 -93.2960 260° West 352 405 36,000  Level FlightAware
05:08PM 37.1090 -93.3830 260° West 351 404 36,000  Level FlightAware
05:09PM 37.0980 -93.4680 261° West 351 404 36,000  Level FlightAware
05:10PM 37.0840 -93.5710 260° West 350 403 36,000  Level FlightAware
05:10PM 37.0760 -93.6300 260° West 351 404 36,000  Level FlightAware
05:11PM 37.0680 -93.6840 259° West 351 404 36,000  Level FlightAware
05:12PM 37.0510 -93.8120 261° West 349 402 36,000  Level FlightAware
05:13PM 37.0360 -93.9200 260° West 349 402 36,000  Level FlightAware
05:13PM 37.0300 -93.9620 260° West 349 402 36,000  Level FlightAware
05:14PM 37.0150 -94.0690 260° West 349 402 36,000  Level FlightAware
05:15PM 37.0020 -94.1590 260° West 348 400 36,000  Level FlightAware
05:16PM 36.9850 -94.2750 260° West 348 400 36,000  Level FlightAware
05:17PM 36.9640 -94.4170 260° West 346 398 36,000  Level FlightAware
05:17PM 36.9570 -94.4640 259° West 346 398 36,000  Level FlightAware
05:18PM 36.9400 -94.5740 259° West 345 397 36,000  Level FlightAware
05:19PM 36.9230 -94.6820 259° West 346 398 36,000  Level FlightAware
05:20PM 36.9070 -94.7860 259° West 346 398 36,000  Level FlightAware
05:21PM 36.8910 -94.8900 259° West 345 397 36,000  Level FlightAware
05:22PM 36.8780 -94.9760 259° West 344 396 36,000  Level FlightAware
05:23PM 36.8610 -95.0850 259° West 344 396 36,000  Level FlightAware
05:23PM 36.8520 -95.1400 258° West 344 396 36,000  Level FlightAware
05:24PM 36.8330 -95.2600 259° West 343 395 36,000  Level FlightAware
05:25PM 36.8190 -95.3470 259° West 342 394 36,000  Level FlightAware
05:26PM 36.8050 -95.4340 259° West 342 394 36,000  Level FlightAware
05:26PM 36.7890 -95.5340 259° West 343 395 36,000  Level FlightAware
05:27PM 36.7820 -95.5740 258° West 343 395 36,000  Level FlightAware
05:28PM 36.7640 -95.6870 259° West 343 395 36,000  Level FlightAware
05:29PM 36.7460 -95.7950 258° West 344 396 36,000  Level FlightAware
05:30PM 36.7290 -95.8980 258° West 343 395 36,000  Level FlightAware
05:30PM 36.7180 -95.9680 259° West 342 394 36,000  Level FlightAware
05:31PM 36.7040 -96.0500 258° West 342 394 36,000  Level FlightAware
05:32PM 36.6890 -96.1420 259° West 343 395 36,000  Level FlightAware
05:32PM 36.6760 -96.2190 258° West 342 394 36,000  Level FlightAware
05:33PM 36.6590 -96.3190 258° West 341 392 36,000  Level FlightAware
05:34PM 36.6420 -96.4200 258° West 342 394 36,000  Level FlightAware
05:35PM 36.6260 -96.5150 258° West 343 395 36,000  Level FlightAware
05:35PM 36.6170 -96.5690 258° West 342 394 36,000  Level FlightAware
05:36PM 36.5960 -96.6870 258° West 340 391 36,000  Level FlightAware
05:37PM 36.5790 -96.7850 258° West 339 390 36,000  Level FlightAware
05:38PM 36.5630 -96.8800 258° West 338 389 36,000  Level FlightAware
05:39PM 36.5440 -96.9900 258° West 337 388 36,000  Level FlightAware
05:40PM 36.5260 -97.0890 257° West 336 387 36,000  Level FlightAware
05:41PM 36.5090 -97.1840 257° West 338 389 36,000  Level FlightAware
05:41PM 36.4970 -97.2520 258° West 338 389 36,000  Level FlightAware
05:42PM 36.4830 -97.3350 258° West 337 388 36,000  Level FlightAware
05:43PM 36.4650 -97.4320 257° West 337 388 36,000  Level FlightAware
05:44PM 36.4460 -97.5390 258° West 337 388 36,000  Level FlightAware
05:45PM 36.4300 -97.6290 258° West 337 388 36,000  Level FlightAware
05:46PM 36.4100 -97.7390 257° West 337 388 36,000  Level FlightAware
05:47PM 36.3920 -97.8340 257° West 339 390 36,000  Level FlightAware
05:47PM 36.3850 -97.8720 257° West 339 390 36,000  Level FlightAware
05:48PM 36.3660 -97.9780 257° West 340 391 36,000  Level FlightAware
05:48PM 36.3600 -98.0080 256° West 340 391 36,000  Level FlightAware
05:49PM 36.3410 -98.1140 257° West 340 391 36,000  Level FlightAware
05:50PM 36.3220 -98.2130 257° West 340 391 36,000  Level FlightAware
05:51PM 36.3070 -98.2980 258° West 339 390 36,000  Level FlightAware
05:51PM 36.2910 -98.3830 257° West 338 389 36,000  Level FlightAware
05:52PM 36.2800 -98.4370 256° West 337 388 36,000  Level FlightAware
05:53PM 36.2600 -98.5450 257° West 338 389 36,000  Level FlightAware
05:54PM 36.2430 -98.6370 257° West 341 392 36,000  Level FlightAware
05:55PM 36.2230 -98.7400 256° West 342 394 36,000  Level FlightAware
05:55PM 36.2070 -98.8250 257° West 341 392 36,000  Level FlightAware
05:56PM 36.1940 -98.8910 256° West 340 391 36,000  Level FlightAware
05:57PM 36.1770 -98.9780 256° West 339 390 36,000  Level FlightAware
05:57PM 36.1680 -99.0230 256° West 339 390 36,000  Level FlightAware
05:58PM 36.1570 -99.0790 256° West 339 390 36,000  Level FlightAware
05:59PM 36.1340 -99.1980 257° West 339 390 36,000  Level FlightAware
05:59PM 36.1170 -99.2840 256° West 339 390 36,000  Level FlightAware
06:00PM 36.1090 -99.3280 257° West 339 390 36,000  Level FlightAware
06:01PM 36.0890 -99.4260 256° West 338 389 36,000  Level FlightAware
06:01PM 36.0800 -99.4710 256° West 339 390 36,000  Level FlightAware
06:02PM 36.0610 -99.5700 257° West 338 389 36,000  Level FlightAware
06:03PM 36.0420 -99.6620 256° West 339 390 36,000  Level FlightAware
06:03PM 36.0260 -99.7430 256° West 339 390 36,000  Level FlightAware
06:04PM 36.0050 -99.8490 256° West 341 392 36,000  Level FlightAware
06:05PM 35.9890 -99.9270 256° West 342 394 36,000  Level FlightAware
06:06PM 35.9750 -100.0270 260° West 345 397 36,000  Level FlightAware
06:07PM 35.9630 -100.1130 260° West 343 395 36,000  Level FlightAware
06:07PM 35.9550 -100.1610 258° West 340 391 36,000  Level FlightAware
06:08PM 35.9380 -100.2720 259° West 336 387 36,000  Level FlightAware
06:09PM 35.9220 -100.3770 259° West 335 386 36,000  Level FlightAware
06:10PM 35.9070 -100.4750 259° West 334 384 36,000  Level FlightAware
06:10PM 35.8980 -100.5300 259° West 331 381 36,000  Level FlightAware
06:11PM 35.8850 -100.6140 259° West 335 386 36,000  Level FlightAware
06:12PM 35.8650 -100.7410 259° West 340 391 36,000  Level FlightAware
06:13PM 35.8500 -100.8350 259° West 340 391 36,000  Level FlightAware
06:13PM 35.8430 -100.8840 260° West 341 392 36,000  Level FlightAware
06:14PM 35.8240 -101.0000 259° West 344 396 36,000  Level FlightAware
06:15PM 35.8100 -101.0920 259° West 346 398 36,000  Level FlightAware
06:16PM 35.7970 -101.1710 259° West 346 398 36,000  Level FlightAware
06:17PM 35.7860 -101.2380 259° West 346 398 36,000  Level FlightAware
06:17PM 35.7770 -101.2920 258° West 345 397 36,000  Level FlightAware
06:18PM 35.7570 -101.4180 259° West 346 398 36,000  Level FlightAware
06:19PM 35.7400 -101.5200 258° West 347 399 36,000  Level FlightAware
06:20PM 35.7230 -101.6290 259° West 348 400 36,000  Level FlightAware
06:21PM 35.7050 -101.7340 258° West 350 403 36,000  Level FlightAware
06:22PM 35.6900 -101.8280 259° West 347 399 36,000  Level FlightAware
06:22PM 35.6740 -101.9230 258° West 341 392 36,000  Level FlightAware
06:23PM 35.6560 -102.0310 258° West 337 388 36,000  Level FlightAware
06:24PM 35.6400 -102.1280 259° West 340 391 36,000  Level FlightAware
06:25PM 35.6230 -102.2280 258° West 345 397 36,000  Level FlightAware
06:26PM 35.6100 -102.3050 258° West 349 402 36,000  Level FlightAware
06:26PM 35.6030 -102.3450 258° West 350 403 36,000  Level FlightAware
06:27PM 35.5830 -102.4630 258° West 353 406 36,000  Level FlightAware
06:28PM 35.5610 -102.5930 258° West 350 403 36,000  Level FlightAware
06:29PM 35.5430 -102.6960 258° West 353 406 36,000  Level FlightAware
06:30PM 35.5270 -102.7890 258° West 358 412 36,000  Level FlightAware
06:31PM 35.5080 -102.8980 258° West 365 420 36,000  Level FlightAware
06:32PM 35.4910 -102.9940 258° West 366 421 36,000  Level FlightAware
06:33PM 35.4680 -103.1250 258° West 360 414 36,000  Level FlightAware
06:34PM 35.4490 -103.2300 258° West 364 419 36,000  Level FlightAware
06:34PM 35.4430 -103.2630 257° West 365 420 36,000  Level FlightAware
06:34PM 35.4300 -103.3330 257° West 369 425 36,000  Level FlightAware
06:35PM 35.4120 -103.4390 258° West 370 426 36,000  Level FlightAware
06:36PM 35.4020 -103.4900 256° West 369 425 36,000  Level FlightAware
06:36PM 35.3920 -103.5460 258° West 368 423 36,000  Level FlightAware
06:37PM 35.3730 -103.6510 258° West 365 420 36,000  Level FlightAware
06:38PM 35.3540 -103.7560 258° West 355 409 36,000  Level FlightAware
06:39PM 35.3380 -103.8450 258° West 355 409 36,000  Level FlightAware
06:39PM 35.3260 -103.9080 257° West 354 407 36,000  Level FlightAware
06:40PM 35.3140 -103.9710 257° West 352 405 36,000  Level FlightAware
06:40PM 35.3040 -104.0300 258° West 352 405 36,000  Level FlightAware
06:41PM 35.2810 -104.1510 257° West 349 402 36,000  Level FlightAware
06:42PM 35.2610 -104.2570 257° West 352 405 36,000 -60 Level FlightAware
06:43PM 35.2430 -104.3520 257° West 347 399 35,900 -480 Descending FlightAware
06:44PM 35.2250 -104.4510 257° West 340 391 35,200 -960 Descending FlightAware
06:45PM 35.2070 -104.5420 256° West 332 382 34,300 -1,200 Descending FlightAware
06:45PM 35.1920 -104.6220 257° West 328 377 33,400 -1,200 Descending FlightAware
06:46PM 35.1720 -104.7260 257° West 323 372 32,300 -1,140 Descending FlightAware
06:47PM 35.1580 -104.8030 257° West 321 369 31,500 -1,080 Descending FlightAware
06:48PM 35.1410 -104.8900 257° West 316 364 30,700 -1,140 Descending FlightAware
06:49PM 35.1260 -104.9650 256° West 320 368 29,800 -1,140 Descending FlightAware
06:50PM 35.1100 -105.0500 257° West 315 362 29,000 -1,080 Descending FlightAware
06:50PM 35.0980 -105.1330 260° West 320 368 28,100 -1,140 Descending FlightAware
06:51PM 35.0850 -105.2280 261° West 321 369 27,200 -1,140 Descending FlightAware
06:52PM 35.0690 -105.3320 259° West 314 361 26,000 -1,500 Descending FlightAware
06:53PM 35.0620 -105.3740 259° West 313 360 25,200 -1,800 Descending FlightAware
06:54PM 35.0450 -105.4780 259° West 309 356 23,500 -1,740 Descending FlightAware
06:54PM 35.0300 -105.5680 259° West 307 353 21,900 -1,800 Descending FlightAware
06:55PM 35.0230 -105.6110 259° West 309 356 21,200 -600 Descending FlightAware
06:56PM 35.0100 -105.6830 258° West 309 356 21,200  Level FlightAware
06:57PM 34.9980 -105.7540 258° West 309 356 21,200  Level FlightAware
06:57PM 34.9850 -105.8270 258° West 309 356 21,200  Level FlightAware
06:58PM 34.9730 -105.8960 258° West 309 356 21,200  Level FlightAware
06:59PM 34.9640 -105.9490 258° West 309 356 21,200 -5,580 Level FlightAware
07:00PM 34.9561 -106.0617 258° West 289 333 13,600 -6,840 Descending Albuquerque Center
07:00PM 34.9572 -106.1167 271° West 274 315 12,800 -840 Descending Albuquerque Center
07:05PM 34.9180 -106.5060 271° West 203 234 9,100 -780 Descending FlightAware
07:06PM 34.9120 -106.5300 253° West 207 238 8,600 -600 Descending FlightAware
07:06PM 34.9050 -106.5570 252° West 207 238 8,600  Level FlightAware
07:07PM 34.8970 -106.5910 254° West 207 238 8,600  Level FlightAware
07:07PM 34.8910 -106.6140 252° West 207 238 8,600  Level FlightAware
07:07PM 34.8880 -106.6250 252° West 207 238 8,600  Level FlightAware
07:08PM 34.8850 -106.6370 253° West 207 238 8,600 -1,620 Level FlightAware
07:08PM 34.9044 -106.6747 253° West 177 204 7,400 -960 Descending Albuquerque Center
07:09PM 34.9283 -106.6972 322° Northwest 164 189 7,400 -120 Level Albuquerque Center
07:09PM 34.9417 -106.7042 337° Northwest 166 191 7,300 -600 Descending Albuquerque Center
07:10PM 34.9694 -106.6942 16° North 157 181 6,800 -840 Descending Albuquerque Center
07:10PM 34.9803 -106.6811 45° Northeast 151 174 6,500 -780 Descending Albuquerque Center
07:11PM 34.9989 -106.6589 44° Northeast 150 173 6,000 -840 Descending Albuquerque Center
07:11PM 35.0081 -106.6456 50° Northeast 147 169 5,700 -720 Descending Albuquerque Center
07:12PM 35.0300 -106.6208 43° Northeast 146 168 5,300 -540 Descending Albuquerque Center